createdAt,value
2023-02-02T00:04:59.927Z,7.37
2023-02-02T00:10:03.677Z,7.38
2023-02-02T00:15:09.771Z,7.41
2023-02-02T00:20:13.679Z,7.41
2023-02-02T00:25:17.575Z,7.40
2023-02-02T00:30:23.162Z,7.41
2023-02-02T00:35:26.906Z,7.40
2023-02-02T00:40:30.641Z,7.38
2023-02-02T00:45:35.757Z,7.38
2023-02-02T00:50:39.601Z,7.42
2023-02-02T00:55:43.361Z,7.43
2023-02-02T01:00:48.533Z,7.39
2023-02-02T01:05:52.346Z,7.41
2023-02-02T01:11:00.022Z,7.41
2023-02-02T01:16:06.461Z,7.41
2023-02-02T01:21:12.302Z,7.42
2023-02-02T01:26:17.285Z,7.40
2023-02-02T01:31:22.481Z,7.39
2023-02-02T01:36:26.367Z,7.39
2023-02-02T01:41:30.283Z,7.35
2023-02-02T01:46:37.047Z,7.38
2023-02-02T01:51:44.375Z,7.36
2023-02-02T01:56:52.524Z,7.32
2023-02-02T02:01:57.695Z,7.35
2023-02-02T02:07:03.905Z,7.36
2023-02-02T02:12:13.397Z,7.33
2023-02-02T02:17:39.217Z,7.34
2023-02-02T02:23:30.273Z,7.35
2023-02-02T02:28:58.232Z,7.32
2023-02-02T02:34:11.263Z,7.32
2023-02-02T02:39:21.875Z,7.32
2023-02-02T02:44:28.624Z,7.33
2023-02-02T02:49:33.814Z,7.29
2023-02-02T02:54:50.684Z,7.32
2023-02-02T03:00:04.912Z,7.31
2023-02-02T03:05:31.788Z,7.31
2023-02-02T03:10:37.369Z,7.32
2023-02-02T03:15:42.535Z,7.30
2023-02-02T03:20:47.904Z,7.28
2023-02-02T03:25:51.795Z,7.28
2023-02-02T03:30:56.811Z,7.28
2023-02-02T03:36:01.983Z,7.30
2023-02-02T03:41:06.771Z,7.26
2023-02-02T03:46:10.547Z,7.24
2023-02-02T03:51:16.963Z,7.27
2023-02-02T03:56:20.776Z,7.26
2023-02-02T04:01:29.542Z,7.26
2023-02-02T04:06:34.627Z,7.28
2023-02-02T04:11:39.385Z,7.31
2023-02-02T04:16:43.809Z,7.28
2023-02-02T04:21:48.881Z,7.27
2023-02-02T04:26:52.727Z,7.27
2023-02-02T04:31:56.599Z,7.31
2023-02-02T04:37:01.751Z,7.27
2023-02-02T04:42:05.841Z,7.28
2023-02-02T04:47:09.560Z,7.25
2023-02-02T04:52:14.624Z,7.24
2023-02-02T04:57:18.353Z,7.24
2023-02-02T05:02:22.087Z,7.26
2023-02-02T05:07:27.246Z,7.22
2023-02-02T05:12:30.950Z,7.27
2023-02-02T05:17:34.664Z,7.30
2023-02-02T05:22:39.783Z,7.31
2023-02-02T05:27:44.421Z,7.29
2023-02-02T05:32:48.121Z,7.30
2023-02-02T05:37:53.272Z,7.31
2023-02-02T05:42:57.051Z,7.30
2023-02-02T05:48:00.845Z,7.32
2023-02-02T05:53:06.048Z,7.34
2023-02-02T05:58:09.821Z,7.35
2023-02-02T06:03:13.774Z,7.33
2023-02-02T06:08:18.857Z,7.31
2023-02-02T06:13:22.683Z,7.30
2023-02-02T06:18:26.430Z,7.22
2023-02-02T06:23:31.529Z,7.20
2023-02-02T06:28:35.250Z,7.16
2023-02-02T06:33:39.162Z,7.19
2023-02-02T06:38:44.493Z,7.15
2023-02-02T06:43:48.547Z,7.07
2023-02-02T06:48:52.304Z,7.08
2023-02-02T06:53:59.496Z,7.06
2023-02-02T06:59:03.413Z,7.09
2023-02-02T07:04:07.120Z,7.11
2023-02-02T07:09:12.189Z,7.12
2023-02-02T07:14:16.126Z,7.16
2023-02-02T07:19:19.905Z,7.12
2023-02-02T07:24:25.017Z,7.11
2023-02-02T07:29:28.798Z,7.13
2023-02-02T07:34:32.504Z,7.12
2023-02-02T07:39:37.805Z,7.10
2023-02-02T07:44:41.578Z,7.13
2023-02-02T07:49:45.901Z,7.11
2023-02-02T07:54:50.956Z,7.09
2023-02-02T07:59:54.990Z,7.16
2023-02-02T08:04:58.689Z,7.18
2023-02-02T08:10:04.480Z,7.21
2023-02-02T08:15:09.020Z,7.25
2023-02-02T08:20:14.159Z,7.24
2023-02-02T08:25:19.324Z,7.27
2023-02-02T08:30:23.128Z,7.32
2023-02-02T08:35:27.126Z,7.36
2023-02-02T08:40:32.565Z,7.42
2023-02-02T08:46:04.565Z,7.46
2023-02-02T08:51:00.400Z,7.49
2023-02-02T08:56:07.881Z,7.54
2023-02-02T09:01:15.967Z,7.58
2023-02-02T09:06:21.767Z,7.59
2023-02-02T09:11:29.298Z,7.67
2023-02-02T09:16:34.769Z,7.78
2023-02-02T09:21:38.547Z,7.78
2023-02-02T09:26:44.691Z,7.69
2023-02-02T09:31:48.654Z,7.79
2023-02-02T09:36:55.373Z,7.88
2023-02-02T09:42:35.817Z,8.03
2023-02-02T09:47:55.596Z,8.00
2023-02-02T09:53:07.779Z,7.96
2023-02-02T09:58:19.833Z,8.04
2023-02-02T10:03:28.381Z,8.03
2023-02-02T10:08:37.692Z,8.02
2023-02-02T10:13:45.397Z,8.00
2023-02-02T10:18:56.092Z,8.13
2023-02-02T10:24:02.208Z,8.23
2023-02-02T10:29:16.681Z,8.32
2023-02-02T10:34:25.865Z,8.36
2023-02-02T10:39:41.168Z,8.41
2023-02-02T10:44:51.653Z,8.43
2023-02-02T10:50:08.906Z,8.35
2023-02-02T10:55:22.835Z,8.39
2023-02-02T11:00:34.997Z,8.28
2023-02-02T11:05:56.920Z,8.36
2023-02-02T11:11:12.275Z,8.45
2023-02-02T11:16:38.809Z,8.50
2023-02-02T11:21:48.521Z,8.47
2023-02-02T11:26:56.283Z,8.53
2023-02-02T11:32:19.571Z,8.52
2023-02-02T11:37:25.686Z,8.55
2023-02-02T11:42:29.435Z,8.62
2023-02-02T11:47:35.450Z,8.61
2023-02-02T11:52:40.449Z,8.60
2023-02-02T11:58:12.161Z,8.59
2023-02-02T12:03:27.609Z,8.52
2023-02-02T12:08:31.897Z,8.50
2023-02-02T12:13:45.841Z,8.46
2023-02-02T12:19:01.784Z,8.52
2023-02-02T12:24:24.515Z,8.43
2023-02-02T12:29:54.655Z,8.56
2023-02-02T12:35:16.398Z,8.59
2023-02-02T12:40:35.020Z,8.53
2023-02-02T12:45:50.503Z,8.53
2023-02-02T12:51:08.766Z,8.45
2023-02-02T12:56:20.876Z,8.42
2023-02-02T13:01:38.746Z,8.29
2023-02-02T13:07:05.055Z,8.28
2023-02-02T13:12:11.114Z,8.24
2023-02-02T13:17:20.849Z,8.16
2023-02-02T13:22:30.829Z,8.10
2023-02-02T13:27:34.703Z,8.06
2023-02-02T13:32:41.676Z,8.14
2023-02-02T13:37:54.678Z,8.10
2023-02-02T13:43:05.539Z,8.25
2023-02-02T13:48:19.579Z,8.28
2023-02-02T13:53:42.605Z,8.33
2023-02-02T13:59:01.873Z,8.31
2023-02-02T14:04:06.874Z,8.24
2023-02-02T14:09:19.937Z,8.19
2023-02-02T14:14:35.252Z,8.16
2023-02-02T14:19:53.816Z,8.11
2023-02-02T14:24:58.909Z,8.17
2023-02-02T14:30:21.385Z,8.04
2023-02-02T14:36:03.945Z,7.97
2023-02-02T14:41:37.197Z,7.93
2023-02-02T14:46:48.149Z,7.97
2023-02-02T14:51:56.362Z,7.96
2023-02-02T14:57:03.427Z,7.87
2023-02-02T15:02:15.958Z,7.83
2023-02-02T15:07:54.516Z,7.82
2023-02-02T15:13:08.293Z,7.79
2023-02-02T15:18:18.820Z,7.81
2023-02-02T15:23:28.373Z,7.74
2023-02-02T15:28:43.260Z,7.79
2023-02-02T15:33:51.560Z,7.78
2023-02-02T15:38:57.069Z,7.77
2023-02-02T15:44:02.321Z,7.74
2023-02-02T15:49:32.765Z,7.80
2023-02-02T15:54:38.700Z,7.80
2023-02-02T15:59:45.943Z,7.82
2023-02-02T16:04:50.047Z,7.82
2023-02-02T16:09:56.873Z,7.79
2023-02-02T16:15:02.172Z,7.85
2023-02-02T16:20:12.305Z,7.83
2023-02-02T16:25:20.125Z,7.77
2023-02-02T16:30:28.952Z,7.81
2023-02-02T16:35:35.902Z,7.80
2023-02-02T16:40:39.805Z,7.79
2023-02-02T16:45:49.220Z,7.81
2023-02-02T16:51:12.576Z,7.83
2023-02-02T16:56:27.342Z,7.83
2023-02-02T17:01:39.278Z,7.81
2023-02-02T17:06:52.446Z,7.85
2023-02-02T17:11:59.375Z,7.84
2023-02-02T17:17:07.139Z,7.86
2023-02-02T17:22:11.918Z,7.91
2023-02-02T17:27:18.636Z,7.90
2023-02-02T17:32:24.934Z,7.91
2023-02-02T17:37:28.683Z,7.91
2023-02-02T17:42:34.637Z,8.00
2023-02-02T17:47:39.986Z,8.02
2023-02-02T17:52:45.754Z,8.04
2023-02-02T17:57:49.737Z,8.08
2023-02-02T18:03:00.255Z,8.11
2023-02-02T18:08:04.094Z,8.11
2023-02-02T18:13:09.084Z,8.14
2023-02-02T18:18:14.225Z,8.16
2023-02-02T18:23:19.607Z,8.16
2023-02-02T18:28:23.413Z,8.19
2023-02-02T18:33:28.747Z,8.19
2023-02-02T18:38:32.481Z,8.23
2023-02-02T18:43:36.214Z,8.20
2023-02-02T18:48:44.422Z,8.28
2023-02-02T18:53:48.983Z,8.26
2023-02-02T18:58:53.140Z,8.26
2023-02-02T19:03:58.550Z,8.23
2023-02-02T19:09:02.338Z,8.27
2023-02-02T19:14:14.426Z,8.30
2023-02-02T19:19:24.500Z,8.32
2023-02-02T19:24:35.914Z,8.25
2023-02-02T19:29:39.825Z,8.27
2023-02-02T19:34:45.522Z,8.26
2023-02-02T19:39:49.299Z,8.17
2023-02-02T19:44:54.323Z,8.09
2023-02-02T19:50:00.917Z,8.04
2023-02-02T19:55:19.453Z,8.03
2023-02-02T20:00:27.739Z,7.95
2023-02-02T20:05:38.739Z,7.97
2023-02-02T20:10:44.491Z,8.00
2023-02-02T20:15:50.091Z,8.02
2023-02-02T20:20:57.297Z,8.02
2023-02-02T20:26:04.795Z,8.06
2023-02-02T20:31:11.184Z,8.06
2023-02-02T20:36:30.148Z,8.08
2023-02-02T20:41:33.979Z,8.10
2023-02-02T20:46:38.277Z,8.12
2023-02-02T20:51:43.894Z,8.07
2023-02-02T20:56:47.914Z,8.11
2023-02-02T21:01:52.969Z,8.07
2023-02-02T21:06:59.425Z,8.09
2023-02-02T21:12:03.211Z,8.10
2023-02-02T21:17:14.715Z,8.10
2023-02-02T21:22:20.181Z,8.09
2023-02-02T21:27:23.964Z,8.11
2023-02-02T21:32:27.775Z,8.15
2023-02-02T21:37:35.769Z,8.14
2023-02-02T21:42:39.802Z,8.10
2023-02-02T21:47:52.013Z,8.10
2023-02-02T21:53:15.346Z,8.11
2023-02-02T21:58:22.925Z,8.08
2023-02-02T22:03:30.642Z,8.04
2023-02-02T22:08:37.746Z,7.98
2023-02-02T22:13:41.615Z,7.93
2023-02-02T22:18:45.608Z,7.88
2023-02-02T22:23:50.666Z,7.88
2023-02-02T22:28:54.429Z,7.89
2023-02-02T22:33:58.392Z,7.91
2023-02-02T22:39:03.475Z,7.93
2023-02-02T22:44:07.263Z,7.94
2023-02-02T22:49:10.942Z,7.97
2023-02-02T22:54:16.075Z,7.98
2023-02-02T22:59:19.815Z,8.02
2023-02-02T23:04:23.541Z,8.02
2023-02-02T23:09:28.608Z,8.03
2023-02-02T23:14:32.317Z,8.07
2023-02-02T23:19:36.072Z,8.02
2023-02-02T23:24:41.145Z,8.03
2023-02-02T23:29:44.955Z,8.00
2023-02-02T23:34:48.697Z,8.01
2023-02-02T23:39:53.804Z,8.01
2023-02-02T23:44:57.517Z,7.97
2023-02-02T23:50:04.250Z,8.00
2023-02-02T23:55:10.777Z,8.00
